Time;durP1;ratioP1;P1;durP2;ratioP2;P2;SDS_P1;SDS_P2;PMS_P1;PMS_P2;Temp;Humidity;BMP_temperature;BMP_pressure;BME280_temperature;BME280_humidity;BME280_pressure;Samples;Min_cycle;Max_cycle;Signal;HPM_P1;HPM_P2
2023/07/18 04:01:23;;;;;;;4.12;3.58;;;;;;;23.59;87.61;100621.41;6553248;27;20084;-83
2023/07/18 04:04:29;;;;;;;4.60;3.40;;;;;;;23.63;87.82;100622.56;6541455;27;33514;-82
2023/07/18 04:07:32;;;;;;;3.95;3.40;;;;;;;23.66;87.53;100620.09;6559403;27;33654;-83
2023/07/18 04:10:35;;;;;;;3.92;3.53;;;;;;;23.69;86.85;100608.62;6542289;27;33806;-86
2023/07/18 04:13:37;;;;;;;7.55;3.45;;;;;;;23.72;86.88;100608.12;6546056;27;33359;-89
2023/07/18 04:16:40;;;;;;;4.07;3.25;;;;;;;23.82;85.84;100606.56;6563919;27;34219;-87
2023/07/18 04:19:43;;;;;;;4.10;3.28;;;;;;;23.95;84.72;100617.13;6544508;27;33718;-86
2023/07/18 04:22:46;;;;;;;5.75;3.37;;;;;;;24.03;84.15;100613.91;6564782;27;33176;-83
2023/07/18 04:26:00;;;;;;;7.32;3.37;;;;;;;24.19;83.40;100620.37;6559146;27;33311;-83
2023/07/18 04:29:04;;;;;;;4.05;3.40;;;;;;;24.33;82.36;100616.06;6578117;27;33444;-83
2023/07/18 04:32:07;;;;;;;4.37;3.65;;;;;;;24.39;82.18;100617.75;6578295;27;33050;-83
2023/07/18 04:35:11;;;;;;;4.97;3.72;;;;;;;24.52;81.08;100622.03;6578648;27;33351;-83
2023/07/18 04:38:13;;;;;;;4.05;3.30;;;;;;;24.65;78.89;100615.22;6558941;27;33581;-83
2023/07/18 04:41:16;;;;;;;7.65;3.67;;;;;;;24.75;78.72;100623.56;6558451;27;33096;-83
2023/07/18 04:44:20;;;;;;;4.05;3.33;;;;;;;24.92;77.84;100617.03;6578417;27;34150;-83
2023/07/18 04:47:23;;;;;;;4.32;3.45;;;;;;;24.88;77.06;100619.50;6559244;27;34868;-83
2023/07/18 04:50:27;;;;;;;5.97;3.55;;;;;;;24.94;77.33;100626.69;6558853;27;33471;-83
2023/07/18 04:53:32;;;;;;;4.37;3.47;;;;;;;24.96;76.96;100620.94;6578643;27;33401;-83
2023/07/18 04:56:35;;;;;;;6.18;3.60;;;;;;;24.99;76.54;100621.22;6578745;27;33461;-84
2023/07/18 04:59:38;;;;;;;5.05;3.17;;;;;;;25.07;76.31;100620.72;6558645;27;33583;-83
2023/07/18 05:02:40;;;;;;;4.40;3.40;;;;;;;25.13;76.31;100627.06;6578093;27;34032;-83
2023/07/18 05:05:44;;;;;;;6.30;3.10;;;;;;;25.17;76.01;100644.75;6559339;27;33874;-83
2023/07/18 05:08:47;;;;;;;3.90;3.20;;;;;;;25.20;75.79;100646.13;6559539;27;33209;-83
2023/07/18 05:11:50;;;;;;;4.07;3.40;;;;;;;25.18;76.35;100640.06;6542040;27;33202;-84
2023/07/18 05:14:53;;;;;;;4.12;3.22;;;;;;;25.23;75.36;100651.13;6569263;27;33111;-83
2023/07/18 05:17:56;;;;;;;4.93;3.37;;;;;;;25.31;74.58;100654.19;6550784;27;34843;-83
2023/07/18 05:20:59;;;;;;;5.22;3.62;;;;;;;25.38;74.24;100664.13;6578889;27;34594;-84
2023/07/18 05:24:02;;;;;;;5.82;3.70;;;;;;;25.41;73.82;100660.81;6559004;27;33248;-83
2023/07/18 05:27:05;;;;;;;3.92;3.30;;;;;;;25.45;73.45;100667.47;6579025;27;33460;-83
2023/07/18 05:30:19;;;;;;;5.80;3.45;;;;;;;25.38;72.86;100678.72;6577994;27;33604;-84
2023/07/18 05:33:22;;;;;;;4.03;3.45;;;;;;;25.52;72.16;100668.88;6559373;27;33514;-83
2023/07/18 05:36:25;;;;;;;3.55;3.17;;;;;;;25.62;72.50;100667.25;6558222;27;33325;-84
2023/07/18 05:39:28;;;;;;;4.37;3.30;;;;;;;25.65;71.66;100672.22;6558621;27;33575;-83
2023/07/18 05:42:31;;;;;;;7.53;3.28;;;;;;;25.72;70.82;100675.56;6558224;27;33129;-84
2023/07/18 05:45:35;;;;;;;6.22;4.00;;;;;;;25.81;70.87;100670.34;6558409;27;33286;-84
2023/07/18 05:48:38;;;;;;;4.47;3.20;;;;;;;25.93;70.15;100681.97;6558465;27;33547;-83
2023/07/18 05:51:41;;;;;;;6.12;3.97;;;;;;;26.07;69.46;100677.59;6540641;27;33068;-83
2023/07/18 05:54:45;;;;;;;4.82;3.40;;;;;;;26.20;68.89;100684.50;6558739;27;32925;-83
2023/07/18 05:57:47;;;;;;;3.30;3.00;;;;;;;26.19;69.26;100688.37;6540966;27;33590;-83
2023/07/18 06:00:50;;;;;;;6.05;3.28;;;;;;;26.17;69.47;100682.28;6540423;27;34175;-83
2023/07/18 06:03:53;;;;;;;3.50;3.20;;;;;;;26.10;70.29;100684.50;6578073;27;33015;-83
2023/07/18 06:06:56;;;;;;;4.15;3.50;;;;;;;26.23;69.54;100686.72;6585393;26;33596;-84
2023/07/18 06:09:59;;;;;;;5.80;3.50;;;;;;;26.35;68.98;100686.44;6582375;27;34526;-84
2023/07/18 06:13:02;;;;;;;6.97;3.70;;;;;;;26.43;68.82;100686.72;6570269;27;34809;-83
2023/07/18 06:16:05;;;;;;;6.30;3.60;;;;;;;26.58;68.12;100701.66;6579654;27;223152;-85
2023/07/18 06:19:08;;;;;;;7.82;3.45;;;;;;;26.77;66.32;100699.19;6546481;27;33874;-87
2023/07/18 06:22:10;;;;;;;6.57;3.97;;;;;;;26.82;66.60;100699.16;6547508;27;34321;-87
2023/07/18 06:25:15;;;;;;;5.35;3.25;;;;;;;27.00;65.71;100698.59;6561070;27;33093;-88
2023/07/18 06:28:18;;;;;;;5.57;3.78;;;;;;;27.14;64.28;100704.31;6561586;27;33429;-84
2023/07/18 06:31:21;;;;;;;4.93;3.20;;;;;;;27.24;63.25;100700.75;6543388;27;34202;-84
2023/07/18 06:34:24;;;;;;;9.02;3.62;;;;;;;27.24;63.31;100696.06;6542668;27;33067;-84
2023/07/18 06:37:27;;;;;;;7.45;3.30;;;;;;;27.39;62.02;100697.13;6560790;27;33421;-84
2023/07/18 06:40:30;;;;;;;6.22;3.65;;;;;;;27.35;61.40;100694.09;6561876;27;33377;-84
2023/07/18 06:43:33;;;;;;;5.30;3.37;;;;;;;27.53;59.75;100696.22;6543363;27;33388;-84
2023/07/18 06:46:36;;;;;;;5.50;3.50;;;;;;;27.51;61.32;100701.19;6560751;27;34170;-84
2023/07/18 06:49:39;;;;;;;7.95;3.45;;;;;;;27.85;60.89;100695.00;6580085;27;33347;-84
2023/07/18 06:52:42;;;;;;;5.75;3.40;;;;;;;28.04;59.47;100695.13;6560712;27;34297;-84
2023/07/18 06:55:49;;;;;;;7.12;3.35;;;;;;;28.06;59.07;100692.09;6542923;27;33311;-83
2023/07/18 06:58:54;;;;;;;4.57;3.60;;;;;;;28.20;59.00;100696.69;6580345;27;33442;-84
2023/07/18 07:01:57;;;;;;;5.68;3.33;;;;;;;28.06;59.26;100708.69;6542969;27;34101;-84
2023/07/18 07:05:00;;;;;;;7.18;3.60;;;;;;;28.11;58.29;100712.28;6542937;27;33322;-84
2023/07/18 07:08:04;;;;;;;7.95;3.40;;;;;;;28.16;57.91;100716.94;6542730;27;32982;-84
2023/07/18 07:11:08;;;;;;;5.00;3.42;;;;;;;28.16;57.82;100714.97;6560262;27;33270;-84
2023/07/18 07:14:11;;;;;;;5.40;3.37;;;;;;;28.17;57.40;100718.56;6542810;27;33400;-84
2023/07/18 07:17:14;;;;;;;3.55;3.03;;;;;;;28.28;57.72;100722.94;6565923;27;33150;-84
2023/07/18 07:20:19;;;;;;;4.35;3.10;;;;;;;28.53;55.40;100730.25;6563620;27;33578;-84
2023/07/18 07:23:22;;;;;;;6.10;3.17;;;;;;;28.82;53.48;100735.81;6559014;27;33363;-84
2023/07/18 07:26:25;;;;;;;5.22;3.33;;;;;;;29.12;53.03;100731.94;6541244;27;33872;-84
2023/07/18 07:29:28;;;;;;;4.28;3.28;;;;;;;29.03;52.42;100727.34;6558868;27;34485;-84
2023/07/18 07:32:30;;;;;;;6.18;3.22;;;;;;;28.71;53.14;100745.34;6559054;27;33578;-83
2023/07/18 07:35:33;;;;;;;3.97;3.40;;;;;;;29.04;51.37;100745.63;6541437;27;33429;-84
2023/07/18 07:38:37;;;;;;;4.57;3.20;;;;;;;28.60;51.97;100736.28;6540990;27;33342;-84
2023/07/18 07:41:40;;;;;;;3.95;3.28;;;;;;;28.93;52.10;100736.56;6559211;27;33513;-84
2023/07/18 07:44:45;;;;;;;5.07;2.85;;;;;;;29.09;51.02;100737.25;6558894;27;34192;-84
2023/07/18 07:47:48;;;;;;;5.90;3.17;;;;;;;29.34;50.68;100731.44;6578678;27;33696;-84
2023/07/18 07:50:51;;;;;;;7.28;3.55;;;;;;;29.37;48.23;100735.56;6558586;27;34518;-85
2023/07/18 07:53:54;;;;;;;4.68;2.75;;;;;;;29.37;48.05;100741.94;6541419;27;33145;-84
2023/07/18 07:56:57;;;;;;;5.22;3.10;;;;;;;29.43;47.29;100741.91;6541504;27;33222;-84
2023/07/18 08:00:00;;;;;;;3.37;2.85;;;;;;;29.69;46.38;100748.81;6578389;27;33893;-84
2023/07/18 08:03:03;;;;;;;3.10;2.80;;;;;;;29.78;45.75;100740.66;6541923;27;32964;-84
2023/07/18 08:06:06;;;;;;;4.87;3.20;;;;;;;29.75;45.03;100744.03;6579886;27;33300;-84
2023/07/18 08:09:08;;;;;;;6.35;3.20;;;;;;;29.83;44.04;100743.34;6583275;27;33355;-84
2023/07/18 08:12:12;;;;;;;6.37;3.03;;;;;;;29.97;42.72;100744.25;6562109;27;33905;-84
2023/07/18 08:15:14;;;;;;;6.30;3.00;;;;;;;30.32;42.31;100735.75;6547717;27;34809;-84
2023/07/18 08:18:17;;;;;;;4.03;2.85;;;;;;;30.29;42.12;100734.38;6545552;27;35029;-84
2023/07/18 08:21:20;;;;;;;6.68;3.08;;;;;;;30.57;40.51;100737.25;6581660;27;33013;-84
2023/07/18 08:24:23;;;;;;;4.60;3.28;;;;;;;30.81;39.85;100742.75;6578763;27;33015;-84
2023/07/18 08:27:26;;;;;;;4.78;2.37;;;;;;;30.88;37.83;100743.97;6559005;27;34998;-84
2023/07/18 08:30:29;;;;;;;4.75;3.08;;;;;;;30.55;38.22;100740.38;6541219;27;33159;-84
2023/07/18 08:33:32;;;;;;;3.75;2.80;;;;;;;30.42;39.30;100746.69;6558549;27;34645;-84
2023/07/18 08:36:35;;;;;;;4.22;3.50;;;;;;;30.35;40.19;100749.84;6541446;27;33460;-87
2023/07/18 08:39:38;;;;;;;4.43;2.92;;;;;;;30.52;40.37;100737.38;6558469;27;33750;-87
2023/07/18 08:42:42;;;;;;;5.43;3.00;;;;;;;30.58;39.44;100739.75;6541055;27;33322;-88
2023/07/18 08:45:46;;;;;;;4.78;3.05;;;;;;;30.43;39.81;100740.84;6558925;27;32958;-88
2023/07/18 08:48:49;;;;;;;6.07;3.10;;;;;;;30.31;39.04;100740.47;6558701;27;33380;-84
2023/07/18 08:51:52;;;;;;;3.55;3.00;;;;;;;30.34;38.63;100744.59;6558387;27;34016;-84
2023/07/18 08:54:55;;;;;;;4.85;3.08;;;;;;;30.05;39.26;100748.31;6558547;27;33553;-84
2023/07/18 08:57:59;;;;;;;5.65;3.10;;;;;;;29.84;39.26;100739.47;6558228;27;34165;-84
2023/07/18 09:01:09;;;;;;;4.65;3.08;;;;;;;29.91;39.66;100737.12;6577151;27;32952;-84
2023/07/18 09:04:12;;;;;;;6.82;3.15;;;;;;;29.94;39.04;100735.72;6577518;27;33175;-84
2023/07/18 09:07:17;;;;;;;5.43;3.00;;;;;;;30.16;40.48;100735.94;6579135;27;34189;-84
2023/07/18 09:10:21;;;;;;;5.57;2.83;;;;;;;30.42;38.47;100733.62;6596760;27;33706;-84
2023/07/18 09:13:25;;;;;;;4.47;3.00;;;;;;;30.72;37.56;100732.28;6589837;27;33999;-84
2023/07/18 09:16:27;;;;;;;4.03;3.22;;;;;;;30.60;36.78;100723.62;6578383;27;33052;-84
2023/07/18 09:19:37;;;;;;;3.03;2.72;;;;;;;30.75;37.21;100739.19;6546027;27;33300;-84
2023/07/18 09:22:41;;;;;;;4.15;2.72;;;;;;;31.12;35.57;100729.09;6581320;27;33546;-84
2023/07/18 09:25:44;;;;;;;4.57;2.62;;;;;;;31.32;35.23;100728.69;6558650;27;33371;-84
2023/07/18 09:28:47;;;;;;;7.07;3.05;;;;;;;31.50;34.71;100724.19;6558555;27;33403;-84
2023/07/18 09:31:51;;;;;;;4.85;3.10;;;;;;;31.42;34.04;100719.38;6578344;27;34355;-84
2023/07/18 09:35:00;;;;;;;4.55;2.72;;;;;;;31.65;34.23;100722.22;6540658;27;33489;-84
2023/07/18 09:38:06;;;;;;;4.60;2.90;;;;;;;31.61;33.48;100725.63;6558620;27;33403;-84
2023/07/18 09:41:13;;;;;;;3.92;2.78;;;;;;;31.10;34.07;100718.28;6559047;27;34279;-84
2023/07/18 09:44:18;;;;;;;6.62;2.97;;;;;;;30.97;33.42;100715.47;6558416;27;33800;-84
2023/07/18 09:47:35;;;;;;;5.03;2.95;;;;;;;30.76;34.38;100712.22;6560807;27;33597;-84
2023/07/18 09:50:40;;;;;;;8.65;2.67;;;;;;;30.59;34.27;100708.03;6577654;27;33462;-84
2023/07/18 09:53:45;;;;;;;5.87;2.95;;;;;;;30.29;34.42;100706.59;6559006;27;33420;-84
2023/07/18 09:56:51;;;;;;;4.85;3.05;;;;;;;30.70;33.75;100703.16;6558464;27;34137;-84
2023/07/18 09:59:57;;;;;;;5.47;3.00;;;;;;;30.75;33.74;100705.84;6577970;27;33487;-84
2023/07/18 10:03:03;;;;;;;5.62;2.90;;;;;;;31.00;33.76;100696.22;6578148;27;34940;-84
2023/07/18 10:06:09;;;;;;;6.00;2.87;;;;;;;30.84;33.98;100689.31;6558653;27;33356;-84
2023/07/18 10:09:12;;;;;;;4.62;3.10;;;;;;;30.85;34.16;100690.94;6562678;27;34478;-84
2023/07/18 10:12:15;;;;;;;4.75;2.67;;;;;;;31.51;33.10;100686.06;6581898;27;33813;-87
2023/07/18 10:15:18;;;;;;;3.42;2.50;;;;;;;31.90;31.96;100676.28;6546672;27;34400;-88
2023/07/18 10:18:22;;;;;;;5.35;2.72;;;;;;;32.53;30.47;100675.38;6580959;27;34431;-88
2023/07/18 10:21:29;;;;;;;10.80;2.75;;;;;;;32.62;29.01;100678.22;6563373;27;33451;-88
2023/07/18 10:24:32;;;;;;;4.07;2.62;;;;;;;32.87;27.69;100680.28;6577143;27;32972;-84
2023/07/18 10:27:45;;;;;;;3.62;2.60;;;;;;;32.94;27.49;100679.84;6577627;27;33375;-84
2023/07/18 10:30:48;;;;;;;4.30;2.37;;;;;;;33.31;27.17;100667.34;6541170;27;33378;-84
2023/07/18 10:34:18;;;;;;;3.12;2.28;;;;;;;33.05;27.09;100669.25;6578040;27;33588;-84
2023/07/18 10:37:26;;;;;;;4.65;2.28;;;;;;;33.12;27.17;100669.62;6575366;27;34181;-84
2023/07/18 10:40:42;;;;;;;2.60;2.30;;;;;;;32.74;27.57;100656.12;6577933;27;33461;-84
2023/07/18 10:43:47;;;;;;;5.65;2.72;;;;;;;32.25;28.35;100658.75;6557369;27;33175;-84
2023/07/18 10:46:50;;;;;;;5.45;2.60;;;;;;;32.58;28.66;100649.31;6577690;27;33479;-84
2023/07/18 10:49:54;;;;;;;5.22;2.75;;;;;;;32.38;28.43;100651.47;6540352;27;33463;-84
2023/07/18 10:52:57;;;;;;;3.35;2.62;;;;;;;31.98;29.30;100647.72;6578943;27;33041;-83
2023/07/18 10:56:00;;;;;;;4.18;2.47;;;;;;;32.16;28.87;100635.56;6558581;27;34289;-84
2023/07/18 10:59:03;;;;;;;3.62;2.60;;;;;;;33.26;27.57;100625.66;6579077;27;33649;-84
2023/07/18 11:02:07;;;;;;;3.62;2.72;;;;;;;34.03;26.38;100631.66;6559394;27;33322;-84
2023/07/18 11:05:11;;;;;;;6.62;2.72;;;;;;;34.66;26.43;100624.53;6560339;27;33368;-84
2023/07/18 11:08:31;;;;;;;7.15;2.70;;;;;;;35.07;26.14;100619.44;6560746;27;33280;-84
2023/07/18 11:11:37;;;;;;;2.75;2.50;;;;;;;35.07;25.84;100614.66;6570921;27;33141;-84
2023/07/18 11:14:40;;;;;;;3.22;2.47;;;;;;;34.85;25.85;100610.13;6595535;27;34887;-84
2023/07/18 11:17:43;;;;;;;6.07;2.67;;;;;;;35.49;25.15;100608.31;6559945;27;33871;-84
2023/07/18 11:20:46;;;;;;;2.85;2.30;;;;;;;35.59;25.87;100613.53;6559792;27;33424;-84
2023/07/18 11:23:49;;;;;;;4.07;2.70;;;;;;;36.47;24.87;100614.38;6594336;27;34397;-84
2023/07/18 11:27:15;;;;;;;4.85;2.58;;;;;;;36.94;24.04;100605.56;6578657;27;33159;-84
2023/07/18 11:30:21;;;;;;;5.10;2.65;;;;;;;36.63;23.87;100597.72;6578977;27;34335;-85
2023/07/18 11:33:29;;;;;;;6.40;2.83;;;;;;;36.74;24.98;100601.69;6559611;27;34434;-84
2023/07/18 11:36:33;;;;;;;3.65;2.47;;;;;;;38.29;23.27;100588.38;6579192;27;34189;-84
2023/07/18 11:39:36;;;;;;;4.22;2.50;;;;;;;38.89;21.37;100594.81;6578824;27;33454;-84
2023/07/18 11:42:44;;;;;;;5.82;2.65;;;;;;;40.20;20.33;100592.47;6541572;27;33013;-85
2023/07/18 11:45:47;;;;;;;5.03;2.33;;;;;;;41.06;20.04;100587.53;6559361;27;33333;-85
2023/07/18 11:48:54;;;;;;;6.40;2.65;;;;;;;41.54;19.18;100584.97;6559657;27;33308;-84
2023/07/18 11:51:57;;;;;;;3.42;2.45;;;;;;;42.33;18.21;100573.44;6579655;27;32988;-85
2023/07/18 11:55:00;;;;;;;5.53;2.35;;;;;;;42.61;17.93;100572.03;6559946;27;34147;-85
2023/07/18 11:58:07;;;;;;;4.03;2.40;;;;;;;43.78;18.48;100565.50;6543876;27;34110;-85
2023/07/18 12:01:10;;;;;;;8.32;3.00;;;;;;;43.51;18.07;100564.16;6545434;27;33073;-85
2023/07/18 12:04:14;;;;;;;2.75;2.05;;;;;;;43.44;17.52;100559.25;6559627;27;33451;-85
2023/07/18 12:07:18;;;;;;;2.95;2.15;;;;;;;44.37;16.74;100551.06;6559200;27;33447;-85
2023/07/18 12:10:21;;;;;;;7.00;2.42;;;;;;;45.11;15.99;100557.91;6571422;27;33311;-85
2023/07/18 12:13:27;;;;;;;8.32;2.45;;;;;;;44.77;16.48;100546.22;6582051;27;33782;-85
2023/07/18 12:16:31;;;;;;;7.70;2.55;;;;;;;44.08;16.57;100551.00;6585792;27;34771;-85
2023/07/18 12:19:34;;;;;;;2.97;2.20;;;;;;;43.69;16.73;100542.37;6565103;27;33544;-85
2023/07/18 12:22:37;;;;;;;2.72;2.25;;;;;;;44.22;16.81;100533.19;6561039;27;34170;-85
2023/07/18 12:25:40;;;;;;;4.10;2.40;;;;;;;44.43;15.81;100528.75;6559291;27;34021;-85
2023/07/18 12:28:44;;;;;;;3.25;2.22;;;;;;;44.61;16.29;100525.91;6541470;27;34095;-85
2023/07/18 12:31:51;;;;;;;4.72;2.37;;;;;;;44.19;16.62;100525.47;6541927;27;33188;-85
2023/07/18 12:34:55;;;;;;;6.35;2.80;;;;;;;45.27;15.73;100533.94;6579407;27;34151;-85
2023/07/18 12:37:58;;;;;;;3.55;2.17;;;;;;;45.63;15.12;100534.59;6541710;27;33810;-85
2023/07/18 12:41:01;;;;;;;4.53;2.22;;;;;;;46.05;15.33;100535.59;6541753;27;33303;-85
2023/07/18 12:44:04;;;;;;;4.45;2.42;;;;;;;46.02;15.03;100534.41;6559494;27;34578;-85
2023/07/18 12:47:08;;;;;;;3.58;2.58;;;;;;;46.23;14.90;100524.06;6578645;27;34046;-85
2023/07/18 12:50:11;;;;;;;2.75;2.00;;;;;;;46.61;14.52;100527.03;6559598;27;33559;-85
2023/07/18 12:53:14;;;;;;;3.78;2.37;;;;;;;45.10;16.15;100521.34;6559452;27;33394;-85
2023/07/18 12:56:17;;;;;;;5.00;2.15;;;;;;;44.31;15.99;100505.19;6559112;27;33910;-85
2023/07/18 12:59:21;;;;;;;4.12;2.50;;;;;;;43.90;16.34;100499.88;6578211;27;33556;-84
2023/07/18 13:02:23;;;;;;;4.97;2.08;;;;;;;45.52;15.74;100497.69;6542845;27;34352;-84
2023/07/18 13:05:27;;;;;;;4.43;2.30;;;;;;;46.34;14.92;100482.91;6559198;27;33888;-84
2023/07/18 13:08:30;;;;;;;3.50;2.45;;;;;;;46.13;14.84;100491.59;6578180;27;33309;-84
2023/07/18 13:11:33;;;;;;;4.65;2.53;;;;;;;45.57;14.96;100480.16;6578303;27;33452;-85
2023/07/18 13:14:36;;;;;;;4.70;2.50;;;;;;;46.47;14.46;100494.59;6578640;27;33178;-87
2023/07/18 13:17:40;;;;;;;3.37;2.72;;;;;;;45.81;14.72;100491.81;6578202;27;33670;-88
2023/07/18 13:20:44;;;;;;;4.57;2.20;;;;;;;47.53;14.21;100482.41;6559543;27;33550;-89
2023/07/18 13:23:46;;;;;;;3.50;2.35;;;;;;;47.61;13.82;100469.66;6543204;27;33537;-87
2023/07/18 13:26:49;;;;;;;3.17;2.40;;;;;;;46.52;14.56;100479.88;6571422;27;33572;-86
2023/07/18 13:29:52;;;;;;;3.08;1.90;;;;;;;46.44;14.32;100466.16;6559336;27;33056;-86
2023/07/18 13:32:55;;;;;;;3.15;1.90;;;;;;;46.40;15.06;100466.19;6578462;27;33500;-86
2023/07/18 13:35:58;;;;;;;3.78;2.10;;;;;;;46.22;14.72;100466.31;6578914;27;33483;-85
2023/07/18 13:39:01;;;;;;;2.37;2.17;;;;;;;47.23;14.12;100463.25;6558435;27;34365;-86
2023/07/18 13:42:05;;;;;;;3.58;2.35;;;;;;;47.86;13.74;100451.34;6577797;27;35016;-86
2023/07/18 13:45:08;;;;;;;3.35;2.15;;;;;;;47.47;14.45;100461.31;6541121;27;33359;-86
2023/07/18 13:48:13;;;;;;;5.80;2.60;;;;;;;47.51;14.16;100461.25;6558946;27;34000;-86
2023/07/18 13:51:15;;;;;;;3.37;2.30;;;;;;;46.46;15.00;100458.78;6558642;27;33617;-85
2023/07/18 13:54:18;;;;;;;2.72;2.17;;;;;;;47.30;14.58;100451.72;6558523;27;33411;-85
2023/07/18 13:57:21;;;;;;;4.43;2.28;;;;;;;46.08;14.99;100455.88;6558707;27;33503;-86
2023/07/18 14:00:24;;;;;;;3.15;2.03;;;;;;;45.99;15.09;100452.69;6557256;27;33744;-86
2023/07/18 14:03:27;;;;;;;3.75;2.12;;;;;;;45.77;15.60;100452.00;6541324;27;33198;-86
2023/07/18 14:06:37;;;;;;;8.05;2.53;;;;;;;45.70;15.57;100447.19;6560331;27;33496;-85
2023/07/18 14:09:40;;;;;;;3.30;1.92;;;;;;;46.73;14.68;100443.87;6561114;27;34075;-85
2023/07/18 14:12:45;;;;;;;3.62;2.30;;;;;;;44.45;16.18;100435.47;6561694;27;33544;-85
2023/07/18 14:15:48;;;;;;;4.12;2.22;;;;;;;42.43;18.03;100438.03;6565207;27;33448;-86
2023/07/18 14:18:51;;;;;;;3.37;2.00;;;;;;;41.42;19.47;100444.69;6561157;27;33038;-83
2023/07/18 14:21:54;;;;;;;5.03;2.40;;;;;;;39.63;20.57;100436.25;6546266;27;34243;-86
2023/07/18 14:24:58;;;;;;;3.62;2.35;;;;;;;39.39;21.71;100429.78;6540268;27;33098;-86
2023/07/18 14:28:00;;;;;;;3.35;2.45;;;;;;;38.29;22.56;100423.28;6558294;27;33089;-86
2023/07/18 14:31:03;;;;;;;4.40;2.55;;;;;;;37.40;24.42;100410.47;6578182;27;33141;-85
2023/07/18 14:34:07;;;;;;;7.87;2.90;;;;;;;36.17;24.42;100409.87;6541215;27;33455;-85
2023/07/18 14:37:10;;;;;;;5.65;2.50;;;;;;;35.80;25.30;100400.59;6542067;27;33234;-85
2023/07/18 14:40:12;;;;;;;3.33;2.55;;;;;;;35.53;25.06;100407.63;6541690;27;34170;-85
2023/07/18 14:43:21;;;;;;;5.25;2.67;;;;;;;35.02;26.41;100416.16;6559562;27;33374;-85
2023/07/18 14:46:24;;;;;;;7.15;3.33;;;;;;;34.92;26.70;100417.34;6558959;27;33701;-85
2023/07/18 14:49:27;;;;;;;2.90;2.53;;;;;;;34.77;26.55;100406.78;6559361;27;33057;-85
2023/07/18 14:52:30;;;;;;;3.72;3.03;;;;;;;34.53;27.32;100404.62;6578876;27;33451;-85
2023/07/18 14:55:33;;;;;;;5.80;2.70;;;;;;;34.45;27.05;100397.94;6559330;27;33422;-84
2023/07/18 14:58:37;;;;;;;6.78;2.83;;;;;;;34.41;27.27;100396.16;6559479;27;33738;-85
2023/07/18 15:01:41;;;;;;;4.12;2.72;;;;;;;34.00;28.36;100397.66;6541500;27;34133;-85
2023/07/18 15:04:44;;;;;;;3.78;2.45;;;;;;;33.96;28.22;100386.34;6578518;27;33823;-84
2023/07/18 15:07:48;;;;;;;4.18;2.80;;;;;;;33.85;28.99;100385.06;6541679;27;33582;-85
2023/07/18 15:10:51;;;;;;;4.05;2.65;;;;;;;33.79;28.51;100390.00;6542192;27;33863;-84
2023/07/18 15:13:55;;;;;;;3.72;2.72;;;;;;;33.61;28.41;100382.81;6569561;27;33003;-85
2023/07/18 15:16:58;;;;;;;4.90;3.00;;;;;;;33.69;28.34;100386.75;6574550;27;33472;-85
2023/07/18 15:20:01;;;;;;;3.92;2.95;;;;;;;33.48;28.75;100390.22;6559245;27;33092;-84
2023/07/18 15:23:04;;;;;;;6.55;2.83;;;;;;;33.27;29.18;100389.28;6572859;27;33216;-84
2023/07/18 15:26:07;;;;;;;6.60;2.60;;;;;;;33.38;28.65;100385.81;6541832;27;32970;-88
2023/07/18 15:29:13;;;;;;;3.70;2.30;;;;;;;33.19;29.31;100374.19;6579287;27;32902;-88
2023/07/18 15:32:15;;;;;;;4.03;2.78;;;;;;;33.13;29.48;100378.31;6549512;27;34437;-84
2023/07/18 15:35:18;;;;;;;4.15;2.80;;;;;;;32.88;29.86;100372.37;6551891;27;33554;-84
2023/07/18 15:38:21;;;;;;;4.50;2.42;;;;;;;32.71;30.37;100370.41;6522694;27;33355;-84
2023/07/18 15:41:24;;;;;;;4.37;2.62;;;;;;;32.59;30.69;100356.28;6558590;27;34176;-84
2023/07/18 15:44:27;;;;;;;4.00;2.55;;;;;;;32.43;30.16;100349.50;6558728;27;34369;-84
2023/07/18 15:47:30;;;;;;;7.22;2.95;;;;;;;32.14;30.69;100338.97;6578426;27;33824;-84
2023/07/18 15:50:33;;;;;;;6.28;3.05;;;;;;;32.08;30.94;100339.09;6578186;27;33133;-84
2023/07/18 15:53:37;;;;;;;3.35;2.53;;;;;;;32.02;31.54;100331.22;6578742;27;33588;-84
2023/07/18 15:56:41;;;;;;;3.33;2.42;;;;;;;31.99;31.29;100331.87;6578784;27;33477;-84
2023/07/18 15:59:44;;;;;;;4.85;2.65;;;;;;;31.89;31.53;100327.41;6578669;27;33204;-84
2023/07/18 16:02:47;;;;;;;3.80;2.58;;;;;;;31.79;32.12;100319.31;6523339;27;33191;-84
2023/07/18 16:05:50;;;;;;;4.97;2.90;;;;;;;31.72;32.01;100300.31;6559171;27;33476;-84
2023/07/18 16:08:52;;;;;;;4.95;2.42;;;;;;;31.63;31.80;100319.75;6541791;27;33116;-84
2023/07/18 16:11:56;;;;;;;4.40;2.50;;;;;;;31.54;32.48;100316.13;6559447;27;33468;-84
2023/07/18 16:14:59;;;;;;;3.08;2.28;;;;;;;31.52;32.48;100306.44;6582516;27;33516;-85
2023/07/18 16:18:03;;;;;;;5.82;3.08;;;;;;;31.42;32.90;100301.97;6562653;27;33482;-84
2023/07/18 16:21:06;;;;;;;3.67;2.72;;;;;;;31.32;33.24;100303.03;6566061;27;33464;-85
2023/07/18 16:24:10;;;;;;;5.05;2.75;;;;;;;31.22;33.10;100303.31;6562046;27;33466;-85
2023/07/18 16:27:13;;;;;;;4.45;2.72;;;;;;;31.24;33.41;100305.75;6563640;27;33205;-84
2023/07/18 16:30:18;;;;;;;3.92;2.70;;;;;;;31.12;33.67;100312.75;6578643;27;33112;-84
2023/07/18 16:33:21;;;;;;;5.18;2.70;;;;;;;31.06;33.84;100330.69;6578686;27;34209;-85
2023/07/18 16:36:24;;;;;;;4.87;2.87;;;;;;;30.97;34.25;100318.66;6559182;27;32813;-85
2023/07/18 16:39:28;;;;;;;5.22;3.03;;;;;;;30.84;34.03;100312.06;6523280;27;33409;-85
2023/07/18 16:42:31;;;;;;;3.92;3.08;;;;;;;30.79;35.30;100298.25;6559527;27;33630;-84
2023/07/18 16:45:36;;;;;;;3.28;2.80;;;;;;;30.72;34.77;100300.66;6578396;27;33401;-85
2023/07/18 16:48:39;;;;;;;3.05;2.67;;;;;;;30.67;34.50;100315.47;6542206;27;34568;-85
2023/07/18 16:51:41;;;;;;;3.30;3.00;;;;;;;30.55;34.68;100322.72;6559037;27;32962;-84
2023/07/18 16:54:45;;;;;;;4.68;2.67;;;;;;;30.48;35.07;100326.75;6578362;27;33493;-84
2023/07/18 16:57:48;;;;;;;3.70;3.00;;;;;;;30.37;36.07;100324.53;6578459;27;34569;-85
2023/07/18 17:00:51;;;;;;;5.85;2.85;;;;;;;30.38;35.81;100320.59;6541304;27;33834;-85
2023/07/18 17:03:57;;;;;;;5.95;2.72;;;;;;;30.30;35.64;100311.03;6541027;27;33521;-85
2023/07/18 17:07:00;;;;;;;6.15;3.12;;;;;;;30.23;35.74;100317.03;6542223;27;33887;-84
2023/07/18 17:10:04;;;;;;;4.55;2.60;;;;;;;30.02;36.65;100322.16;6558908;27;33453;-85
2023/07/18 17:13:07;;;;;;;4.32;2.70;;;;;;;29.88;37.36;100321.34;6523672;27;33316;-85
2023/07/18 17:16:11;;;;;;;4.97;2.97;;;;;;;29.87;36.62;100316.94;6558699;27;33410;-84
2023/07/18 17:19:14;;;;;;;4.07;3.17;;;;;;;29.87;36.61;100322.50;6541649;27;33330;-84
2023/07/18 17:22:17;;;;;;;4.45;2.70;;;;;;;29.87;37.15;100341.09;6559820;27;33341;-84
2023/07/18 17:25:21;;;;;;;5.68;3.08;;;;;;;29.80;37.07;100347.03;6542053;27;33552;-84
2023/07/18 17:28:23;;;;;;;3.25;2.60;;;;;;;29.80;36.92;100345.06;6559817;27;33394;-84
2023/07/18 17:31:26;;;;;;;6.62;3.08;;;;;;;29.83;38.92;100350.00;6560536;27;33831;-84
2023/07/18 17:34:29;;;;;;;8.50;3.03;;;;;;;29.66;40.21;100344.28;6571942;27;33187;-84
2023/07/18 17:37:32;;;;;;;5.40;2.80;;;;;;;29.58;40.03;100339.38;6557154;27;33368;-84
2023/07/18 17:40:35;;;;;;;5.87;3.08;;;;;;;29.47;40.34;100329.59;6542877;27;33358;-84
2023/07/18 17:43:38;;;;;;;4.95;2.62;;;;;;;29.49;38.42;100324.59;6560360;27;33723;-88
2023/07/18 17:46:41;;;;;;;3.67;2.85;;;;;;;29.47;38.67;100327.66;6580096;27;33889;-89
2023/07/18 17:49:44;;;;;;;3.00;2.67;;;;;;;29.46;39.87;100326.00;6578298;27;34294;-89
2023/07/18 17:52:46;;;;;;;4.95;3.00;;;;;;;29.50;38.05;100320.66;6558708;27;33319;-89
2023/07/18 17:55:49;;;;;;;6.72;3.17;;;;;;;29.51;39.15;100328.66;6558779;27;33560;-85
2023/07/18 17:58:52;;;;;;;4.22;2.67;;;;;;;29.39;40.67;100325.56;6558679;27;33354;-84
2023/07/18 18:01:55;;;;;;;4.70;3.33;;;;;;;29.33;41.25;100326.78;6541054;27;32979;-84
2023/07/18 18:04:58;;;;;;;6.18;3.10;;;;;;;29.42;38.45;100324.97;6558502;27;33299;-84
2023/07/18 18:08:03;;;;;;;7.72;3.15;;;;;;;29.36;38.62;100317.88;6558709;27;33336;-84
2023/07/18 18:11:06;;;;;;;3.90;2.87;;;;;;;29.25;40.14;100331.09;6578367;27;33067;-85
2023/07/18 18:14:09;;;;;;;5.62;3.20;;;;;;;29.20;40.26;100335.91;6540776;27;33028;-85